Time;durP1;ratioP1;P1;durP2;ratioP2;P2;SDS_P1;SDS_P2;PMS_P1;PMS_P2;Temp;Humidity;BMP_temperature;BMP_pressure;BME280_temperature;BME280_humidity;BME280_pressure;Samples;Min_cycle;Max_cycle;Signal;HPM_P1;HPM_P2
2021/04/29 00:01:25;;;;;;;2.25;1.88;;;11.20;58.70;;;;;;5058784;28;20029;-86
2021/04/29 00:03:51;;;;;;;2.15;1.90;;;11.20;58.90;;;;;;5073591;28;20040;-88
2021/04/29 00:06:17;;;;;;;2.22;2.03;;;11.20;58.70;;;;;;5063038;28;20561;-86
2021/04/29 00:08:43;;;;;;;2.63;1.92;;;11.20;58.70;;;;;;5054791;28;20119;-87
2021/04/29 00:11:10;;;;;;;1.80;1.70;;;11.20;58.60;;;;;;5053074;28;20466;-86
2021/04/29 00:13:37;;;;;;;3.15;1.92;;;11.20;58.60;;;;;;5053284;28;20045;-85
2021/04/29 00:16:05;;;;;;;1.52;1.42;;;11.20;58.60;;;;;;5053192;28;20210;-86
2021/04/29 00:18:30;;;;;;;1.92;1.70;;;11.20;58.40;;;;;;5018636;28;20037;-86
2021/04/29 00:20:57;;;;;;;2.60;1.98;;;11.20;58.50;;;;;;5052045;28;20033;-86
2021/04/29 00:23:27;;;;;;;2.28;1.67;;;11.20;58.50;;;;;;5051323;28;20047;-85
2021/04/29 00:25:54;;;;;;;4.40;2.35;;;11.20;58.60;;;;;;5034661;28;20129;-86
2021/04/29 00:28:21;;;;;;;1.98;1.77;;;11.20;58.70;;;;;;5051611;28;20401;-86
2021/04/29 00:30:50;;;;;;;2.35;1.98;;;11.20;58.60;;;;;;5052650;28;20041;-86
2021/04/29 00:33:16;;;;;;;3.55;2.42;;;11.20;58.50;;;;;;5052489;28;20049;-83
2021/04/29 00:35:42;;;;;;;3.05;2.13;;;11.20;58.50;;;;;;5051149;28;20041;-83
2021/04/29 00:38:08;;;;;;;2.20;1.90;;;11.20;58.50;;;;;;5051505;28;20045;-82
2021/04/29 00:40:34;;;;;;;2.03;1.90;;;11.20;58.50;;;;;;5052646;28;20087;-83
2021/04/29 00:43:00;;;;;;;2.40;1.80;;;11.20;58.50;;;;;;5052736;28;20043;-83
2021/04/29 00:45:26;;;;;;;1.98;1.77;;;11.20;58.40;;;;;;5052465;28;20482;-83
2021/04/29 00:47:52;;;;;;;2.80;2.25;;;11.20;58.40;;;;;;5052507;28;20087;-83
2021/04/29 00:50:24;;;;;;;3.92;2.33;;;11.10;58.30;;;;;;5052695;28;20082;-85
2021/04/29 00:52:51;;;;;;;3.55;2.10;;;11.20;58.40;;;;;;5034801;28;20045;-86
2021/04/29 00:55:17;;;;;;;3.75;2.20;;;11.20;58.30;;;;;;5052446;28;20061;-84
2021/04/29 00:57:43;;;;;;;2.63;2.40;;;11.20;58.30;;;;;;5052529;28;20033;-86
2021/04/29 01:00:12;;;;;;;3.47;2.50;;;11.20;58.40;;;;;;5051209;28;20040;-85
2021/04/29 01:02:43;;;;;;;3.25;2.20;;;11.10;58.30;;;;;;5051372;28;20091;-85
2021/04/29 01:05:19;;;;;;;3.40;2.42;;;11.10;58.30;;;;;;5051427;28;20062;-85
2021/04/29 01:07:52;;;;;;;2.35;2.10;;;11.10;58.30;;;;;;5051271;28;20052;-85
2021/04/29 01:10:27;;;;;;;4.50;2.30;;;11.10;58.30;;;;;;5051193;28;20037;-84
2021/04/29 01:12:55;;;;;;;2.63;2.25;;;11.10;58.30;;;;;;5052023;28;20051;-85
2021/04/29 01:15:24;;;;;;;4.07;2.20;;;11.10;58.20;;;;;;5051058;28;20498;-87
2021/04/29 01:17:51;;;;;;;3.40;2.33;;;11.10;58.20;;;;;;5052455;28;20040;-86
2021/04/29 01:21:01;;;;;;;3.13;2.45;;;11.10;58.30;;;;;;5052840;28;20048;-86
2021/04/29 01:23:44;;;;;;;3.05;2.50;;;11.10;58.30;;;;;;5051720;28;20043;-86
2021/04/29 01:26:46;;;;;;;3.42;2.40;;;11.10;58.20;;;;;;5052118;28;20055;-84
2021/04/29 01:29:16;;;;;;;3.80;2.00;;;11.10;58.30;;;;;;5026691;28;20068;-84
2021/04/29 01:31:45;;;;;;;2.40;2.20;;;11.10;58.20;;;;;;5050969;28;20053;-83
2021/04/29 01:34:15;;;;;;;3.63;2.50;;;11.00;58.30;;;;;;5052066;28;20053;-85
2021/04/29 01:36:43;;;;;;;3.63;2.20;;;11.00;58.30;;;;;;5038612;28;20117;-85
2021/04/29 01:39:11;;;;;;;4.13;2.20;;;11.00;58.20;;;;;;5055868;28;20112;-86
2021/04/29 01:41:40;;;;;;;4.13;2.28;;;11.00;58.30;;;;;;5054913;28;20044;-86
2021/04/29 01:44:08;;;;;;;2.70;2.50;;;11.00;58.30;;;;;;5055966;28;20049;-87
2021/04/29 01:46:36;;;;;;;2.30;2.10;;;11.00;58.30;;;;;;5055949;28;20053;-86
2021/04/29 01:49:04;;;;;;;3.88;2.55;;;11.00;58.40;;;;;;5055325;28;20095;-86
2021/04/29 01:51:32;;;;;;;3.55;2.25;;;11.00;58.50;;;;;;5055797;28;20095;-86
2021/04/29 01:54:00;;;;;;;3.33;2.47;;;11.00;58.60;;;;;;5056599;28;20127;-86
2021/04/29 01:56:27;;;;;;;2.72;2.30;;;10.90;58.60;;;;;;5054836;28;20165;-82
2021/04/29 01:58:53;;;;;;;3.05;2.22;;;10.90;58.70;;;;;;5053827;28;20379;-83
2021/04/29 02:01:19;;;;;;;3.78;2.50;;;10.90;58.70;;;;;;5055679;28;20036;-84
2021/04/29 02:03:47;;;;;;;4.90;3.00;;;10.90;58.70;;;;;;5055526;28;20494;-84
2021/04/29 02:06:14;;;;;;;4.63;2.95;;;10.90;58.70;;;;;;5055211;28;20095;-85
2021/04/29 02:08:45;;;;;;;3.90;2.60;;;10.90;58.80;;;;;;5054325;28;20056;-86
2021/04/29 02:11:14;;;;;;;2.95;2.47;;;10.90;58.80;;;;;;5054266;28;20049;-85
2021/04/29 02:13:45;;;;;;;2.75;2.28;;;10.90;58.70;;;;;;5055007;28;20036;-86
2021/04/29 02:16:35;;;;;;;3.22;2.45;;;10.90;58.70;;;;;;5053558;28;20061;-86
2021/04/29 02:19:02;;;;;;;2.95;2.13;;;10.90;58.60;;;;;;5055428;28;20045;-85
2021/04/29 02:21:30;;;;;;;5.03;2.38;;;10.90;58.60;;;;;;5055454;28;20033;-85
2021/04/29 02:23:56;;;;;;;3.65;2.63;;;10.90;58.60;;;;;;5054900;28;20045;-86
2021/04/29 02:26:26;;;;;;;3.78;2.45;;;10.90;58.60;;;;;;5054976;28;20115;-86
2021/04/29 02:28:54;;;;;;;3.55;2.63;;;10.90;58.50;;;;;;5053311;28;20037;-87
2021/04/29 02:31:22;;;;;;;6.38;2.35;;;10.90;58.50;;;;;;5054202;28;20078;-85
2021/04/29 02:33:50;;;;;;;3.22;2.53;;;10.90;58.50;;;;;;5036512;28;20071;-84
2021/04/29 02:36:16;;;;;;;5.18;2.65;;;11.00;58.50;;;;;;5053542;28;20057;-84
2021/04/29 02:38:42;;;;;;;3.70;2.90;;;11.00;58.50;;;;;;5054524;28;20565;-84
2021/04/29 02:41:08;;;;;;;2.75;2.42;;;11.00;58.50;;;;;;5054778;28;20079;-86
2021/04/29 02:43:35;;;;;;;3.20;2.53;;;11.00;58.50;;;;;;5053489;28;20033;-85
2021/04/29 02:46:05;;;;;;;2.65;2.45;;;11.00;58.50;;;;;;5052559;28;20123;-84
2021/04/29 02:48:31;;;;;;;3.95;2.47;;;11.00;58.40;;;;;;5038748;28;20091;-88
2021/04/29 02:51:01;;;;;;;5.03;2.60;;;11.00;58.30;;;;;;5071263;28;20083;-87
2021/04/29 02:53:27;;;;;;;3.25;2.15;;;11.00;58.30;;;;;;5072941;28;20080;-88
2021/04/29 02:55:53;;;;;;;3.92;2.55;;;11.00;58.10;;;;;;5073231;28;20047;-87
2021/04/29 02:58:19;;;;;;;5.82;2.63;;;11.00;58.00;;;;;;5073353;28;20037;-85
2021/04/29 03:00:46;;;;;;;3.50;2.42;;;11.10;58.00;;;;;;5075757;28;20067;-85
2021/04/29 03:03:12;;;;;;;3.17;2.80;;;11.10;57.80;;;;;;5061179;28;20092;-85
2021/04/29 03:05:39;;;;;;;3.88;2.20;;;11.10;57.80;;;;;;5076376;28;20032;-84
2021/04/29 03:08:07;;;;;;;3.65;2.42;;;11.10;57.70;;;;;;5072622;28;20044;-83
2021/04/29 03:10:33;;;;;;;3.70;3.00;;;11.20;57.70;;;;;;5072142;28;20046;-83
2021/04/29 03:13:01;;;;;;;3.53;3.10;;;11.20;57.60;;;;;;5055653;28;20519;-83
2021/04/29 03:15:27;;;;;;;2.70;2.50;;;11.20;57.50;;;;;;5074018;28;20060;-86
2021/04/29 03:17:53;;;;;;;3.78;2.80;;;11.20;57.40;;;;;;5072343;28;20034;-83
2021/04/29 03:20:19;;;;;;;3.60;2.80;;;11.20;57.30;;;;;;5055486;28;20036;-84
2021/04/29 03:22:45;;;;;;;4.68;3.00;;;11.20;57.30;;;;;;5051938;28;20041;-82
2021/04/29 03:25:12;;;;;;;5.07;3.10;;;11.20;57.20;;;;;;5053075;28;20068;-84
2021/04/29 03:27:38;;;;;;;5.50;3.00;;;11.30;57.20;;;;;;5035186;28;20508;-84
2021/04/29 03:30:04;;;;;;;5.60;3.13;;;11.30;57.10;;;;;;5051733;28;20045;-84
2021/04/29 03:32:32;;;;;;;3.92;2.70;;;11.30;57.10;;;;;;5052745;28;20056;-84
2021/04/29 03:34:59;;;;;;;3.33;2.80;;;11.30;57.00;;;;;;5051807;28;20430;-85
2021/04/29 03:37:25;;;;;;;4.72;3.20;;;11.30;57.00;;;;;;5035264;28;20193;-80
2021/04/29 03:39:51;;;;;;;5.88;3.35;;;11.30;57.00;;;;;;5053898;28;20489;-80
2021/04/29 03:42:18;;;;;;;4.28;3.38;;;11.30;57.10;;;;;;5052013;28;20095;-84
2021/04/29 03:44:44;;;;;;;3.00;2.70;;;11.30;57.10;;;;;;5053000;28;20032;-79
2021/04/29 03:47:10;;;;;;;4.35;3.00;;;11.30;57.20;;;;;;5053108;28;20044;-80
2021/04/29 03:49:36;;;;;;;3.65;3.22;;;11.30;57.20;;;;;;5052591;28;20037;-80
2021/04/29 03:52:02;;;;;;;4.97;3.33;;;11.30;57.10;;;;;;5052951;28;20067;-81
2021/04/29 03:54:28;;;;;;;5.20;3.25;;;11.30;57.10;;;;;;5034964;28;20072;-82
2021/04/29 03:56:55;;;;;;;6.45;3.55;;;11.30;57.00;;;;;;5052528;28;20039;-78
2021/04/29 03:59:25;;;;;;;4.93;3.28;;;11.30;57.00;;;;;;5052438;28;20041;-85
2021/04/29 04:01:51;;;;;;;4.88;3.25;;;11.40;57.00;;;;;;5026219;28;20056;-89
2021/04/29 04:04:17;;;;;;;4.38;2.95;;;11.40;56.90;;;;;;5041402;28;20043;-88
2021/04/29 04:06:43;;;;;;;4.53;3.10;;;11.50;56.90;;;;;;5060888;28;20036;-87
2021/04/29 04:09:12;;;;;;;4.72;3.60;;;11.50;56.80;;;;;;5056310;28;20500;-86
2021/04/29 04:11:38;;;;;;;4.80;2.97;;;11.90;56.40;;;;;;5037364;28;20405;-84
2021/04/29 04:14:04;;;;;;;4.22;3.15;;;12.50;55.90;;;;;;5053221;28;20029;-84
2021/04/29 04:16:30;;;;;;;4.07;3.20;;;13.30;55.20;;;;;;5052519;28;20075;-80
2021/04/29 04:18:57;;;;;;;3.83;3.13;;;14.00;54.00;;;;;;5051819;28;20117;-80
2021/04/29 04:21:25;;;;;;;7.40;3.35;;;14.80;52.60;;;;;;5050633;28;20041;-79
2021/04/29 04:23:53;;;;;;;5.97;3.05;;;15.50;51.50;;;;;;5052298;28;20041;-83
2021/04/29 04:26:20;;;;;;;3.95;3.05;;;16.10;50.20;;;;;;5035620;28;20405;-82
2021/04/29 04:28:46;;;;;;;3.05;2.75;;;16.80;49.00;;;;;;5052241;28;20119;-82
2021/04/29 04:31:12;;;;;;;3.72;2.65;;;17.30;48.20;;;;;;5052097;28;20055;-82
2021/04/29 04:33:38;;;;;;;2.83;2.60;;;17.80;47.20;;;;;;5050836;28;20045;-80
2021/04/29 04:36:04;;;;;;;3.35;2.88;;;18.10;46.60;;;;;;5052162;28;20095;-81
2021/04/29 04:38:31;;;;;;;3.22;2.92;;;18.40;46.20;;;;;;5046650;28;20406;-83
2021/04/29 04:40:57;;;;;;;3.63;3.33;;;18.60;46.00;;;;;;5048538;28;20473;-85
2021/04/29 04:43:25;;;;;;;3.63;2.90;;;18.80;45.50;;;;;;5051189;28;20103;-84
2021/04/29 04:45:50;;;;;;;3.40;3.10;;;19.10;44.90;;;;;;5052612;28;20489;-90
2021/04/29 04:48:17;;;;;;;4.15;3.15;;;19.50;44.50;;;;;;5052113;28;20032;-86
2021/04/29 04:50:43;;;;;;;3.38;2.85;;;20.10;44.00;;;;;;5051457;28;20033;-88
2021/04/29 04:53:10;;;;;;;4.35;3.03;;;20.70;43.20;;;;;;5051734;28;20052;-88
2021/04/29 04:55:42;;;;;;;6.10;4.53;;;21.30;42.20;;;;;;5052876;28;20037;-90
2021/04/29 04:58:08;;;;;;;13.43;10.93;;;21.90;41.40;;;;;;5052604;28;20497;-90
2021/04/29 05:00:35;;;;;;;11.18;9.05;;;22.40;40.40;;;;;;5052052;28;20029;-90
2021/04/29 05:03:03;;;;;;;8.52;7.38;;;22.80;39.60;;;;;;5055033;28;20052;-89
2021/04/29 05:05:31;;;;;;;9.38;6.47;;;23.30;39.00;;;;;;5057879;28;20037;-87
2021/04/29 05:08:01;;;;;;;6.15;5.53;;;23.60;38.70;;;;;;5052362;28;20402;-89
2021/04/29 05:10:31;;;;;;;5.43;4.90;;;23.90;38.20;;;;;;5054777;28;20115;-90
2021/04/29 05:13:00;;;;;;;4.93;4.20;;;24.30;37.50;;;;;;5055881;28;20381;-89
2021/04/29 05:15:26;;;;;;;4.30;3.90;;;24.20;37.10;;;;;;5059691;28;20057;-90
2021/04/29 05:17:52;;;;;;;4.20;3.50;;;24.10;37.10;;;;;;5057716;28;20068;-91
2021/04/29 05:20:18;;;;;;;4.50;3.15;;;23.70;37.00;;;;;;5059039;28;20045;-88
2021/04/29 05:22:44;;;;;;;6.68;3.30;;;23.60;37.70;;;;;;5058163;28;20045;-86
2021/04/29 05:25:10;;;;;;;3.28;2.72;;;23.60;37.40;;;;;;5056789;28;20033;-87
2021/04/29 05:27:38;;;;;;;3.28;2.97;;;23.40;37.50;;;;;;5056373;28;20037;-85
2021/04/29 05:30:06;;;;;;;4.10;2.78;;;23.60;37.50;;;;;;5034773;28;20052;-90
2021/04/29 05:32:32;;;;;;;2.50;2.30;;;23.80;37.50;;;;;;5054707;28;20052;-88
2021/04/29 05:34:59;;;;;;;2.58;2.10;;;23.90;37.00;;;;;;5056320;28;20063;-89
2021/04/29 05:37:25;;;;;;;2.40;2.05;;;24.20;36.60;;;;;;5056698;28;20497;-89
2021/04/29 05:39:52;;;;;;;2.10;1.90;;;24.40;36.20;;;;;;5056983;28;20036;-88
2021/04/29 05:42:19;;;;;;;2.45;2.20;;;24.70;35.80;;;;;;5057852;28;20037;-92
2021/04/29 05:44:45;;;;;;;1.73;1.63;;;24.70;35.80;;;;;;5056528;28;20032;-91
2021/04/29 05:47:11;;;;;;;3.55;2.30;;;24.80;35.20;;;;;;5056765;28;20052;-88
2021/04/29 05:49:37;;;;;;;2.67;2.10;;;24.90;34.60;;;;;;5056442;28;20045;-87
2021/04/29 05:52:05;;;;;;;2.55;2.33;;;24.60;34.10;;;;;;5056497;28;20060;-82
2021/04/29 05:54:34;;;;;;;3.58;2.40;;;24.10;33.80;;;;;;5059517;28;20041;-85
2021/04/29 05:57:04;;;;;;;2.63;2.20;;;23.30;33.90;;;;;;5055247;28;20040;-85
2021/04/29 05:59:31;;;;;;;4.97;2.70;;;23.10;34.40;;;;;;5056484;28;20052;-87
2021/04/29 06:01:57;;;;;;;7.03;2.47;;;22.80;34.60;;;;;;5055368;28;20037;-87
2021/04/29 06:04:23;;;;;;;3.00;2.40;;;22.60;34.70;;;;;;5063489;28;20035;-88
2021/04/29 06:06:49;;;;;;;21.90;13.95;;;22.70;34.80;;;;;;5069657;28;20047;-88
2021/04/29 06:09:18;;;;;;;7.40;6.43;;;22.80;34.60;;;;;;5073963;28;20041;-86
2021/04/29 06:11:45;;;;;;;5.35;4.05;;;23.00;34.60;;;;;;5061020;28;20049;-88
2021/04/29 06:14:13;;;;;;;5.95;3.20;;;23.00;34.60;;;;;;5057123;28;20520;-87
2021/04/29 06:16:41;;;;;;;4.53;2.55;;;22.80;33.90;;;;;;5056563;28;20493;-84
2021/04/29 06:19:09;;;;;;;2.67;2.47;;;22.40;34.00;;;;;;5056981;28;20068;-86
2021/04/29 06:21:36;;;;;;;2.95;2.60;;;22.00;33.50;;;;;;5052657;28;20041;-84
2021/04/29 06:24:02;;;;;;;4.22;2.50;;;21.80;33.90;;;;;;5055053;28;20075;-85
2021/04/29 06:26:30;;;;;;;2.88;2.58;;;21.90;34.30;;;;;;5055225;28;20493;-84
2021/04/29 06:28:56;;;;;;;4.20;2.38;;;22.00;34.20;;;;;;5057263;28;20057;-88
2021/04/29 06:31:23;;;;;;;2.42;2.00;;;22.20;33.90;;;;;;5038876;28;20041;-86
2021/04/29 06:33:49;;;;;;;2.40;2.20;;;22.20;33.70;;;;;;5060527;28;20044;-83
2021/04/29 06:36:15;;;;;;;2.40;2.20;;;22.30;33.60;;;;;;5064486;28;20078;-84
2021/04/29 06:38:41;;;;;;;3.40;2.65;;;22.00;33.50;;;;;;5060253;28;20037;-84
2021/04/29 06:41:07;;;;;;;3.85;2.03;;;21.90;33.50;;;;;;5061124;28;20133;-83
2021/04/29 06:43:34;;;;;;;2.17;2.00;;;21.90;33.50;;;;;;5057667;28;20063;-82
2021/04/29 06:46:01;;;;;;;3.25;2.20;;;22.20;33.40;;;;;;5057870;28;20040;-80
2021/04/29 06:48:27;;;;;;;3.80;2.05;;;22.40;33.20;;;;;;5057458;28;20087;-84
2021/04/29 06:50:55;;;;;;;2.50;2.30;;;22.50;32.60;;;;;;5057549;28;20040;-81
2021/04/29 06:53:22;;;;;;;2.30;2.10;;;22.60;32.10;;;;;;5057524;28;20122;-83
2021/04/29 06:55:48;;;;;;;3.88;2.13;;;22.60;32.00;;;;;;5056616;28;20131;-85
2021/04/29 06:58:14;;;;;;;2.20;2.00;;;22.50;32.30;;;;;;5057324;28;20135;-87
2021/04/29 07:00:41;;;;;;;4.28;2.42;;;22.30;32.10;;;;;;5058487;28;20044;-84
2021/04/29 07:03:06;;;;;;;2.53;2.00;;;22.10;31.70;;;;;;5060948;28;20055;-87
2021/04/29 07:05:32;;;;;;;5.25;2.28;;;21.90;32.10;;;;;;5059788;28;20037;-83
2021/04/29 07:08:00;;;;;;;2.10;1.88;;;21.60;32.20;;;;;;5059657;28;20140;-83
2021/04/29 07:10:26;;;;;;;2.78;1.85;;;21.50;32.80;;;;;;5056286;28;20040;-82
2021/04/29 07:12:53;;;;;;;3.10;2.50;;;21.50;32.50;;;;;;5056872;28;20409;-80
2021/04/29 07:15:19;;;;;;;2.92;1.88;;;21.70;32.70;;;;;;5055554;28;20114;-83
2021/04/29 07:17:47;;;;;;;3.08;2.30;;;21.70;32.40;;;;;;5056359;28;20040;-82
2021/04/29 07:20:13;;;;;;;1.90;1.80;;;21.40;32.20;;;;;;5056993;28;20036;-84
2021/04/29 07:22:39;;;;;;;2.17;1.98;;;21.10;32.20;;;;;;5056494;28;20115;-84
2021/04/29 07:25:09;;;;;;;2.75;1.98;;;21.00;32.50;;;;;;5057227;28;20035;-79
2021/04/29 07:27:36;;;;;;;2.17;1.95;;;21.00;32.70;;;;;;5056331;28;20485;-80
2021/04/29 07:30:03;;;;;;;2.67;1.90;;;21.00;32.50;;;;;;5038646;28;20105;-82
2021/04/29 07:32:29;;;;;;;2.70;2.50;;;21.10;32.50;;;;;;5055510;28;20075;-81
2021/04/29 07:34:59;;;;;;;5.70;1.80;;;21.10;32.20;;;;;;5056408;28;20579;-82
2021/04/29 07:37:25;;;;;;;2.88;1.80;;;21.10;32.40;;;;;;5056837;28;20044;-78
2021/04/29 07:39:51;;;;;;;3.60;1.70;;;21.00;32.50;;;;;;5052460;28;20057;-78
2021/04/29 07:42:18;;;;;;;3.00;1.80;;;21.10;32.40;;;;;;5054542;28;20516;-79
2021/04/29 07:44:44;;;;;;;3.42;1.88;;;21.10;32.50;;;;;;5055985;28;20044;-80
2021/04/29 07:47:11;;;;;;;3.15;1.52;;;20.90;32.50;;;;;;5056399;28;20043;-82
2021/04/29 07:49:37;;;;;;;2.95;1.60;;;20.90;32.10;;;;;;5056043;28;20389;-82
2021/04/29 07:52:06;;;;;;;3.55;1.83;;;20.60;32.30;;;;;;5054478;28;20064;-82
2021/04/29 07:54:35;;;;;;;4.38;1.80;;;20.40;32.30;;;;;;5055321;28;20086;-82
2021/04/29 07:57:02;;;;;;;4.20;1.70;;;20.10;32.50;;;;;;5056216;28;20035;-81
2021/04/29 07:59:29;;;;;;;4.50;1.98;;;19.90;32.60;;;;;;5055540;28;20114;-82
2021/04/29 08:01:58;;;;;;;3.33;2.03;;;19.70;32.90;;;;;;5056446;28;20054;-80
2021/04/29 08:04:24;;;;;;;1.90;1.73;;;19.70;33.10;;;;;;5054287;28;20035;-82
2021/04/29 08:06:51;;;;;;;3.45;1.92;;;19.50;33.20;;;;;;5055553;28;20069;-81
2021/04/29 08:09:18;;;;;;;4.35;1.88;;;19.40;33.60;;;;;;5055950;28;20064;-82
2021/04/29 08:11:44;;;;;;;2.85;1.75;;;19.30;33.50;;;;;;5055383;28;20099;-81
2021/04/29 08:14:09;;;;;;;5.47;2.45;;;19.10;33.50;;;;;;5055784;28;20036;-81
2021/04/29 08:16:35;;;;;;;3.00;1.60;;;18.90;33.30;;;;;;5055065;28;20064;-83
2021/04/29 08:19:01;;;;;;;2.67;1.63;;;18.80;33.40;;;;;;5056171;28;20072;-84
2021/04/29 08:21:29;;;;;;;2.20;1.67;;;18.80;33.50;;;;;;5055420;28;20126;-82
2021/04/29 08:23:57;;;;;;;2.22;1.42;;;18.70;33.50;;;;;;5055351;28;20048;-85
2021/04/29 08:26:24;;;;;;;2.60;1.50;;;18.60;33.60;;;;;;5054714;28;20037;-85
2021/04/29 08:28:54;;;;;;;6.47;1.40;;;18.60;33.70;;;;;;5055032;28;20029;-85
2021/04/29 08:31:23;;;;;;;3.15;1.85;;;18.50;34.00;;;;;;5054045;28;20057;-82
2021/04/29 08:33:49;;;;;;;3.15;1.75;;;18.40;34.00;;;;;;5053968;28;20049;-81
2021/04/29 08:36:19;;;;;;;2.70;2.13;;;18.30;34.10;;;;;;5055314;28;20041;-81
2021/04/29 08:38:45;;;;;;;4.60;1.85;;;18.10;34.00;;;;;;5037703;28;20131;-80
2021/04/29 08:41:13;;;;;;;2.97;1.92;;;18.00;34.10;;;;;;5054183;28;20518;-80
2021/04/29 08:43:39;;;;;;;4.20;1.95;;;18.00;34.30;;;;;;5055496;28;20115;-84
2021/04/29 08:46:05;;;;;;;5.38;2.00;;;17.90;34.50;;;;;;5041084;28;20056;-83
2021/04/29 08:48:32;;;;;;;3.40;1.90;;;17.80;34.60;;;;;;5059151;28;20128;-83
2021/04/29 08:50:58;;;;;;;8.07;1.90;;;17.70;34.70;;;;;;5058490;28;20433;-82
2021/04/29 08:53:25;;;;;;;3.95;1.80;;;17.70;34.90;;;;;;5059153;28;20075;-81
2021/04/29 08:55:50;;;;;;;1.67;1.58;;;17.70;35.10;;;;;;5041292;28;20041;-82
2021/04/29 08:58:16;;;;;;;3.25;1.67;;;17.60;34.90;;;;;;5058877;28;20184;-81
2021/04/29 09:00:43;;;;;;;2.17;1.92;;;17.50;34.90;;;;;;5058168;28;20088;-84
2021/04/29 09:03:10;;;;;;;3.72;2.55;;;17.50;34.90;;;;;;5059656;28;20040;-82
2021/04/29 09:05:36;;;;;;;1.73;1.63;;;17.50;35.10;;;;;;5067732;28;20093;-84
2021/04/29 09:08:10;;;;;;;2.63;1.67;;;17.50;34.90;;;;;;5063521;28;20032;-82
2021/04/29 09:10:38;;;;;;;1.70;1.60;;;17.40;34.80;;;;;;5058421;28;20037;-82
2021/04/29 09:13:20;;;;;;;2.78;2.33;;;17.30;34.80;;;;;;5057464;28;20176;-80
2021/04/29 09:15:49;;;;;;;2.42;1.88;;;17.30;34.80;;;;;;5059260;28;20057;-81
2021/04/29 09:18:19;;;;;;;1.75;1.65;;;17.30;34.80;;;;;;5041146;28;20147;-81
2021/04/29 09:20:52;;;;;;;2.47;1.95;;;17.20;34.60;;;;;;5057935;28;20040;-83
2021/04/29 09:23:21;;;;;;;3.20;1.60;;;17.20;34.70;;;;;;5059153;28;20040;-82
2021/04/29 09:25:53;;;;;;;1.85;1.58;;;17.20;34.80;;;;;;5058945;28;20041;-83
2021/04/29 09:28:42;;;;;;;2.13;1.55;;;17.10;34.70;;;;;;5057355;28;20071;-83
2021/04/29 09:31:17;;;;;;;3.05;1.88;;;17.10;34.50;;;;;;5058689;28;20052;-84
2021/04/29 09:33:46;;;;;;;3.15;1.63;;;17.00;34.60;;;;;;5057359;28;20037;-81
2021/04/29 09:36:26;;;;;;;2.20;1.85;;;16.90;34.80;;;;;;5058718;28;20037;-80
2021/04/29 09:39:07;;;;;;;2.45;1.70;;;16.90;35.10;;;;;;5058524;28;20072;-84
2021/04/29 09:41:36;;;;;;;3.28;1.60;;;16.80;35.20;;;;;;5058280;28;20493;-81
2021/04/29 09:44:10;;;;;;;1.83;1.73;;;16.80;35.40;;;;;;5041030;28;20528;-82
2021/04/29 09:46:52;;;;;;;3.00;1.90;;;16.80;35.50;;;;;;5057749;28;20052;-77
2021/04/29 09:49:24;;;;;;;2.33;1.65;;;16.80;35.40;;;;;;5057633;28;20064;-78
2021/04/29 09:51:51;;;;;;;2.63;1.88;;;16.70;35.20;;;;;;5056100;28;20079;-78
2021/04/29 09:54:33;;;;;;;5.55;1.90;;;16.70;35.40;;;;;;5039857;28;20041;-78
2021/04/29 09:57:13;;;;;;;2.17;1.95;;;16.70;35.60;;;;;;5057433;28;20029;-79
2021/04/29 09:59:54;;;;;;;1.90;1.77;;;16.60;35.50;;;;;;5056526;28;20051;-78
2021/04/29 10:02:20;;;;;;;3.45;2.45;;;16.60;35.70;;;;;;5057138;28;20029;-79
2021/04/29 10:04:46;;;;;;;3.03;2.03;;;16.50;35.80;;;;;;5058049;28;20040;-78
2021/04/29 10:07:15;;;;;;;3.65;2.35;;;16.40;35.80;;;;;;5057425;28;20029;-79
2021/04/29 10:09:43;;;;;;;3.22;2.40;;;16.40;35.80;;;;;;5047388;28;20037;-77
2021/04/29 10:12:16;;;;;;;4.65;2.10;;;16.40;36.10;;;;;;5037114;28;20099;-76
2021/04/29 10:14:43;;;;;;;5.53;2.25;;;16.30;35.80;;;;;;5035764;28;20061;-77
2021/04/29 10:17:11;;;;;;;3.45;2.08;;;16.20;35.80;;;;;;5035070;28;20041;-76
2021/04/29 10:19:46;;;;;;;4.50;2.08;;;16.20;36.00;;;;;;5037486;28;20037;-79
2021/04/29 10:22:16;;;;;;;9.23;2.22;;;16.20;36.00;;;;;;5037774;28;20041;-80
2021/04/29 10:24:46;;;;;;;4.22;2.03;;;16.20;35.90;;;;;;5035468;28;20041;-81
2021/04/29 10:27:17;;;;;;;2.72;1.85;;;16.30;35.80;;;;;;5037216;28;20036;-80
2021/04/29 10:29:44;;;;;;;2.28;1.85;;;16.30;35.80;;;;;;5019143;28;20167;-81
2021/04/29 10:32:16;;;;;;;4.88;2.10;;;16.40;35.70;;;;;;5038893;28;20045;-80
2021/04/29 10:34:49;;;;;;;3.53;1.90;;;16.40;35.50;;;;;;5036980;28;20144;-80
2021/04/29 10:37:27;;;;;;;4.10;1.67;;;16.40;35.50;;;;;;5020446;28;20034;-81
2021/04/29 10:39:57;;;;;;;2.53;2.00;;;16.40;35.40;;;;;;5035611;28;20167;-81
2021/04/29 10:42:27;;;;;;;2.80;1.88;;;16.50;35.40;;;;;;5037734;28;20397;-80
2021/04/29 10:44:59;;;;;;;4.07;2.22;;;16.50;35.90;;;;;;5019639;28;20528;-80
2021/04/29 10:47:32;;;;;;;2.80;1.83;;;16.50;35.30;;;;;;5035666;28;20041;-79
2021/04/29 10:50:20;;;;;;;4.78;2.03;;;16.60;35.20;;;;;;5037340;28;20033;-83
2021/04/29 10:52:59;;;;;;;2.70;2.00;;;16.60;35.30;;;;;;5035137;28;20052;-79
2021/04/29 10:55:57;;;;;;;5.18;1.90;;;16.60;35.10;;;;;;5037142;28;20037;-81
2021/04/29 10:58:24;;;;;;;4.28;2.10;;;16.60;35.10;;;;;;5036712;28;20037;-80
2021/04/29 11:01:00;;;;;;;2.20;1.90;;;16.60;35.20;;;;;;5035492;28;20041;-80
2021/04/29 11:03:48;;;;;;;2.45;1.60;;;16.50;35.10;;;;;;5035806;28;20556;-80
2021/04/29 11:06:19;;;;;;;5.68;1.98;;;16.50;35.10;;;;;;5035532;28;20043;-81
2021/04/29 11:08:51;;;;;;;3.30;1.90;;;16.50;35.00;;;;;;5034777;28;20121;-82
2021/04/29 11:11:38;;;;;;;3.03;1.98;;;16.50;34.80;;;;;;5033018;28;20045;-82
2021/04/29 11:14:17;;;;;;;3.42;1.98;;;16.50;34.90;;;;;;5033169;28;20390;-80
2021/04/29 11:16:55;;;;;;;2.80;2.00;;;16.50;35.00;;;;;;5034167;28;20062;-79
2021/04/29 11:19:43;;;;;;;3.35;2.20;;;16.50;35.00;;;;;;5032720;28;20037;-78
2021/04/29 11:22:13;;;;;;;3.78;2.05;;;16.50;34.90;;;;;;5032640;28;20049;-80
2021/04/29 11:24:51;;;;;;;6.53;2.10;;;16.50;35.00;;;;;;5032844;28;20406;-78
2021/04/29 11:27:34;;;;;;;3.65;2.17;;;16.50;34.70;;;;;;5032418;28;20072;-79
2021/04/29 11:30:09;;;;;;;6.70;1.88;;;16.40;34.40;;;;;;5033359;28;20410;-80
2021/04/29 11:32:37;;;;;;;;;;;16.40;34.70;;;;;;5032582;28;20045;-81
2021/04/29 11:35:05;;;;;;;2.55;2.13;;;16.40;34.90;;;;;;5033365;28;20010;-79
2021/04/29 11:37:42;;;;;;;5.10;2.13;;;16.40;34.90;;;;;;5031385;28;20379;-80
2021/04/29 11:40:10;;;;;;;2.88;2.00;;;16.40;36.30;;;;;;5033630;28;20050;-80
2021/04/29 11:42:37;;;;;;;4.30;2.40;;;16.40;36.30;;;;;;5032486;28;20038;-78
2021/04/29 11:45:15;;;;;;;4.10;2.60;;;16.40;36.00;;;;;;5033616;28;20025;-81
2021/04/29 11:48:03;;;;;;;3.08;2.42;;;16.30;35.50;;;;;;5015681;28;20068;-81
2021/04/29 11:50:54;;;;;;;2.35;2.10;;;16.30;35.50;;;;;;5032638;28;20040;-80
2021/04/29 11:53:30;;;;;;;2.22;1.70;;;16.20;35.10;;;;;;5031474;28;20140;-81
2021/04/29 11:56:05;;;;;;;2.25;2.00;;;16.20;35.10;;;;;;5032736;28;20402;-82
2021/04/29 11:58:32;;;;;;;2.60;2.33;;;16.10;34.80;;;;;;5033062;28;20497;-78
2021/04/29 12:00:59;;;;;;;4.68;2.35;;;16.10;34.90;;;;;;5031435;28;20037;-78
2021/04/29 12:03:28;;;;;;;3.85;2.28;;;16.10;35.00;;;;;;5032570;28;20048;-79
2021/04/29 12:05:58;;;;;;;3.97;2.55;;;16.00;35.00;;;;;;5031282;28;20041;-78
2021/04/29 12:08:26;;;;;;;2.85;2.30;;;16.00;35.00;;;;;;5032829;28;20041;-79
2021/04/29 12:10:57;;;;;;;3.30;2.03;;;16.00;35.10;;;;;;5032785;28;20041;-79
2021/04/29 12:13:35;;;;;;;4.20;2.45;;;16.00;35.20;;;;;;5032612;28;20453;-78
2021/04/29 12:16:12;;;;;;;2.65;2.03;;;16.00;35.30;;;;;;5031448;28;20053;-78
2021/04/29 12:18:43;;;;;;;5.57;2.45;;;16.00;35.30;;;;;;5030905;28;20034;-78
2021/04/29 12:21:10;;;;;;;2.72;2.08;;;16.00;35.10;;;;;;5030894;28;20044;-78
2021/04/29 12:23:36;;;;;;;2.38;2.05;;;16.00;35.10;;;;;;5031080;28;20386;-79
2021/04/29 12:26:08;;;;;;;2.25;2.05;;;16.00;35.10;;;;;;5032226;28;20049;-77
2021/04/29 12:28:40;;;;;;;4.00;2.00;;;16.10;35.10;;;;;;5032490;28;20029;-79
2021/04/29 12:31:18;;;;;;;3.80;1.80;;;16.00;35.00;;;;;;5030826;28;20041;-79
2021/04/29 12:33:57;;;;;;;2.45;1.95;;;16.10;35.10;;;;;;5031252;28;20045;-78
2021/04/29 12:36:24;;;;;;;4.07;1.77;;;16.00;35.10;;;;;;5032563;28;20029;-80
2021/04/29 12:38:51;;;;;;;2.20;2.05;;;16.00;35.10;;;;;;5032092;28;20046;-78
2021/04/29 12:41:17;;;;;;;5.18;2.00;;;16.00;35.00;;;;;;5031946;28;20453;-79
2021/04/29 12:44:06;;;;;;;4.35;1.90;;;16.10;35.00;;;;;;5032311;28;20034;-77
2021/04/29 12:46:40;;;;;;;4.35;2.15;;;16.20;35.20;;;;;;5032219;28;20494;-79
2021/04/29 12:49:15;;;;;;;2.65;2.00;;;16.10;35.10;;;;;;5032255;28;20029;-79
2021/04/29 12:51:42;;;;;;;;;;;16.10;35.00;;;;;;5014936;28;20033;-79
2021/04/29 12:54:13;;;;;;;2.17;1.90;;;16.10;34.80;;;;;;5031217;28;20447;-78
2021/04/29 12:56:42;;;;;;;2.05;1.90;;;16.20;34.90;;;;;;5032654;28;20088;-80
2021/04/29 12:59:13;;;;;;;4.60;1.95;;;16.20;34.80;;;;;;5032442;28;20041;-78